createdAt,value
2022-08-22T00:01:41.228Z,97851.31
2022-08-22T00:02:42.144Z,97936.39
2022-08-22T00:02:45.811Z,97897.52
2022-08-22T00:03:01.344Z,97898.45
2022-08-22T00:03:12.458Z,97856.44
2022-08-22T00:06:53.148Z,97843.05
2022-08-22T00:12:05.588Z,97837.09
2022-08-22T00:17:25.448Z,97832.85
2022-08-22T00:22:36.978Z,97826.66
2022-08-22T00:27:48.998Z,97826.22
2022-08-22T00:32:58.538Z,97822.94
2022-08-22T00:38:08.858Z,97824.02
2022-08-22T00:43:28.602Z,97824.21
2022-08-22T00:48:51.978Z,97826.60
2022-08-22T00:54:02.118Z,97827.40
2022-08-22T00:59:36.398Z,97835.14
2022-08-22T01:05:01.658Z,97839.02
2022-08-22T01:10:19.178Z,97841.35
2022-08-22T01:15:27.218Z,97841.56
2022-08-22T01:20:53.479Z,97842.05
2022-08-22T01:26:14.930Z,97847.30
2022-08-22T01:31:50.018Z,97844.81
2022-08-22T01:37:13.909Z,97845.71
2022-08-22T01:42:31.768Z,97850.63
2022-08-22T01:47:41.880Z,97848.75
2022-08-22T01:52:50.939Z,97842.95
2022-08-22T01:57:59.307Z,97839.98
2022-08-22T02:03:16.460Z,97844.14
2022-08-22T02:08:29.306Z,97845.89
2022-08-22T02:13:52.276Z,97848.80
2022-08-22T02:19:06.106Z,97849.50
2022-08-22T02:24:20.125Z,97851.27
2022-08-22T02:29:35.085Z,97854.58
2022-08-22T02:34:45.249Z,97857.23
2022-08-22T02:39:57.240Z,97862.27
2022-08-22T02:45:08.601Z,97862.50
2022-08-22T02:50:19.643Z,97854.30
2022-08-22T02:55:44.382Z,97851.96
2022-08-22T03:00:52.943Z,97849.46
2022-08-22T03:06:02.075Z,97847.63
2022-08-22T03:11:17.959Z,97849.55
2022-08-22T03:16:28.452Z,97855.45
2022-08-22T03:21:39.289Z,97858.59
2022-08-22T03:26:51.163Z,97857.81
2022-08-22T03:32:13.483Z,97856.35
2022-08-22T03:37:22.751Z,97851.76
2022-08-22T03:42:42.751Z,97853.90
2022-08-22T03:48:04.146Z,97858.17
2022-08-22T03:53:22.492Z,97851.60
2022-08-22T03:58:45.686Z,97849.96
2022-08-22T04:04:09.957Z,97853.82
2022-08-22T04:09:36.365Z,97848.27
2022-08-22T04:14:53.015Z,97846.80
2022-08-22T04:20:19.015Z,97843.00
2022-08-22T04:25:27.326Z,97847.91
2022-08-22T04:30:36.994Z,97853.16
2022-08-22T04:35:46.457Z,97850.39
2022-08-22T04:40:56.364Z,97854.15
2022-08-22T04:46:05.753Z,97857.95
2022-08-22T04:51:27.961Z,97863.34
2022-08-22T04:56:39.943Z,97868.30
2022-08-22T05:01:49.209Z,97872.72
2022-08-22T05:07:03.369Z,97875.38
2022-08-22T05:12:14.970Z,97880.09
2022-08-22T05:17:24.172Z,97882.48
2022-08-22T05:22:31.521Z,97891.48
2022-08-22T05:27:42.581Z,97898.55
2022-08-22T05:32:52.171Z,97906.80
2022-08-22T05:37:59.328Z,97908.16
2022-08-22T05:43:07.248Z,97911.02
2022-08-22T05:48:18.518Z,97917.58
2022-08-22T05:53:31.730Z,97920.60
2022-08-22T05:58:52.039Z,97927.86
2022-08-22T06:04:09.767Z,97927.79
2022-08-22T06:09:19.886Z,97933.95
2022-08-22T06:14:30.418Z,97937.94
2022-08-22T06:19:44.726Z,97935.73
2022-08-22T06:24:52.597Z,97937.20
2022-08-22T06:30:00.686Z,97942.98
2022-08-22T06:35:10.215Z,97941.19
2022-08-22T06:40:18.698Z,97946.59
2022-08-22T06:45:28.365Z,97948.04
2022-08-22T06:50:36.305Z,97948.33
2022-08-22T06:55:45.857Z,97947.45
2022-08-22T07:01:05.162Z,97950.86
2022-08-22T07:06:21.245Z,97951.11
2022-08-22T07:11:29.545Z,97952.93
2022-08-22T07:16:37.568Z,97953.19
2022-08-22T07:21:46.413Z,97955.09
2022-08-22T07:26:57.626Z,97955.27
2022-08-22T07:32:10.647Z,97954.44
2022-08-22T07:37:19.920Z,97953.12
2022-08-22T07:42:31.656Z,97959.50
2022-08-22T07:47:49.780Z,97959.83
2022-08-22T07:53:00.406Z,97957.94
2022-08-22T07:58:11.676Z,97959.05
2022-08-22T08:03:19.217Z,97954.71
2022-08-22T08:08:27.309Z,97954.04
2022-08-22T08:13:36.875Z,97952.38
2022-08-22T08:18:44.713Z,97950.80
2022-08-22T08:23:51.723Z,97954.90
2022-08-22T08:28:59.929Z,97961.77
2022-08-22T08:34:08.346Z,97962.08
2022-08-22T08:39:21.035Z,97963.36
2022-08-22T08:44:40.188Z,97968.78
2022-08-22T08:49:56.217Z,97961.29
2022-08-22T08:55:19.699Z,97958.90
2022-08-22T09:00:34.976Z,97955.98
2022-08-22T09:05:51.266Z,97960.90
2022-08-22T09:11:10.005Z,97968.58
2022-08-22T09:16:32.295Z,97967.31
2022-08-22T09:21:58.216Z,97958.73
2022-08-22T09:27:09.257Z,97958.63
2022-08-22T09:32:21.525Z,97966.73
2022-08-22T09:37:43.908Z,97953.35
2022-08-22T09:42:56.938Z,97967.04
2022-08-22T09:48:07.265Z,97963.58
2022-08-22T09:53:22.836Z,97968.70
2022-08-22T09:58:41.705Z,97974.98
2022-08-22T10:04:05.057Z,97977.63
2022-08-22T10:09:18.325Z,97978.02
2022-08-22T10:14:28.827Z,97980.92
2022-08-22T10:19:39.256Z,97979.06
2022-08-22T10:24:50.179Z,97984.33
2022-08-22T10:30:05.648Z,97987.06
2022-08-22T10:35:20.105Z,97993.94
2022-08-22T10:40:29.595Z,97990.62
2022-08-22T10:45:37.578Z,97990.05
2022-08-22T10:50:46.025Z,97988.30
2022-08-22T10:55:55.177Z,97983.09
2022-08-22T11:01:37.461Z,97980.33
2022-08-22T11:06:32.932Z,97976.75
2022-08-22T11:11:41.865Z,97976.02
2022-08-22T11:16:57.866Z,97978.67
2022-08-22T11:22:12.367Z,97974.65
2022-08-22T11:27:30.738Z,97977.30
2022-08-22T11:33:07.035Z,97973.27
2022-08-22T11:38:32.565Z,97973.48
2022-08-22T11:43:55.706Z,97979.50
2022-08-22T11:49:16.216Z,97982.13
2022-08-22T11:54:31.143Z,97977.27
2022-08-22T11:59:57.924Z,97973.69
2022-08-22T12:05:11.257Z,97971.33
2022-08-22T12:10:29.447Z,97970.90
2022-08-22T12:15:41.176Z,97973.20
2022-08-22T12:21:07.528Z,97968.58
2022-08-22T12:26:22.090Z,97964.67
2022-08-22T12:31:36.884Z,97963.61
2022-08-22T12:36:54.648Z,97953.89
2022-08-22T12:42:12.906Z,97956.50
2022-08-22T12:47:26.746Z,97950.33
2022-08-22T12:52:44.360Z,97940.44
2022-08-22T12:57:56.847Z,97943.68
2022-08-22T13:03:05.546Z,97949.84
2022-08-22T13:08:17.603Z,97954.02
2022-08-22T13:13:37.241Z,97952.48
2022-08-22T13:18:53.701Z,97952.98
2022-08-22T13:24:05.536Z,97956.52
2022-08-22T13:29:27.497Z,97955.02
2022-08-22T13:34:48.276Z,97951.35
2022-08-22T13:39:57.708Z,97946.05
2022-08-22T13:45:12.806Z,97945.64
2022-08-22T13:50:21.716Z,97947.96
2022-08-22T13:55:30.988Z,97947.73
2022-08-22T14:01:00.006Z,97941.77
2022-08-22T14:06:35.550Z,97935.91
2022-08-22T14:11:40.506Z,97931.79
2022-08-22T14:16:49.746Z,97929.94
2022-08-22T14:22:00.179Z,97934.86
2022-08-22T14:27:08.345Z,97934.14
2022-08-22T14:32:35.216Z,97931.09
2022-08-22T14:37:43.807Z,97930.77
2022-08-22T14:42:53.026Z,97933.14
2022-08-22T14:48:30.695Z,97934.56
2022-08-22T14:53:30.260Z,97932.20
2022-08-22T14:58:38.246Z,97930.04
2022-08-22T15:03:45.788Z,97923.83
2022-08-22T15:08:52.705Z,97923.55
2022-08-22T15:14:01.948Z,97922.94
2022-08-22T15:19:24.825Z,97924.73
2022-08-22T15:24:39.021Z,97927.06
2022-08-22T15:29:53.525Z,97928.53
2022-08-22T15:35:07.603Z,97925.33
2022-08-22T15:40:16.545Z,97933.94
2022-08-22T15:45:30.877Z,97923.36
2022-08-22T15:50:42.034Z,97921.73
2022-08-22T15:56:08.396Z,97916.39
2022-08-22T16:01:20.106Z,97920.90
2022-08-22T16:06:43.454Z,97935.77
2022-08-22T16:11:55.394Z,97957.58
2022-08-22T16:17:04.367Z,97970.93
2022-08-22T16:22:11.914Z,97969.80
2022-08-22T16:27:22.436Z,97968.06
2022-08-22T16:32:29.656Z,97961.17
2022-08-22T16:37:52.674Z,97965.80
2022-08-22T16:43:15.094Z,97964.02
2022-08-22T16:48:35.904Z,97966.27
2022-08-22T16:54:01.592Z,97972.67
2022-08-22T16:59:23.129Z,97981.25
2022-08-22T17:04:35.544Z,97986.32
2022-08-22T17:09:57.695Z,97974.80
2022-08-22T17:15:21.313Z,97976.61
2022-08-22T17:20:34.473Z,97978.73
2022-08-22T17:25:53.044Z,97971.83
2022-08-22T17:31:02.523Z,97969.58
2022-08-22T17:36:26.994Z,97979.30
2022-08-22T17:41:40.015Z,97972.66
2022-08-22T17:46:49.235Z,97978.71
2022-08-22T17:51:59.056Z,97987.88
2022-08-22T17:57:10.624Z,97984.55
2022-08-22T18:02:19.313Z,97985.75
2022-08-22T18:07:34.414Z,97995.72
2022-08-22T18:12:43.794Z,98002.27
2022-08-22T18:17:54.458Z,98011.79
2022-08-22T18:23:04.035Z,98015.12
2022-08-22T18:28:13.184Z,98024.84
2022-08-22T18:39:55.609Z,97993.83
2022-08-22T18:45:02.457Z,97998.04
2022-08-22T18:50:31.384Z,97999.20
2022-08-22T18:55:47.075Z,97999.96
2022-08-22T19:00:59.290Z,98008.19
2022-08-22T19:06:19.275Z,98012.84
2022-08-22T19:11:36.881Z,98002.32
2022-08-22T19:17:02.555Z,98006.33
2022-08-22T19:22:26.627Z,97998.09
2022-08-22T19:27:34.465Z,97995.77
2022-08-22T19:32:59.648Z,97992.78
2022-08-22T19:38:07.805Z,97994.17
2022-08-22T19:43:29.935Z,97986.25
2022-08-22T19:48:45.466Z,97982.94
2022-08-22T19:53:57.641Z,97979.82
2022-08-22T19:59:09.086Z,97980.60
2022-08-22T20:04:28.916Z,97979.91
2022-08-22T20:09:44.408Z,97975.95
2022-08-22T20:14:51.116Z,97974.30
2022-08-22T20:25:42.915Z,97965.77
2022-08-22T20:30:52.507Z,97965.45
2022-08-22T20:36:00.986Z,97963.86
2022-08-22T20:41:14.332Z,97963.15
2022-08-22T20:46:34.058Z,97961.05
2022-08-22T20:51:51.658Z,97956.82
2022-08-22T20:57:00.416Z,97956.16
2022-08-22T21:02:10.528Z,97953.44
2022-08-22T21:07:23.677Z,97956.83
2022-08-22T21:12:30.578Z,97969.36
2022-08-22T21:17:39.489Z,97974.52
2022-08-22T21:22:46.494Z,97980.73
2022-08-22T21:27:55.107Z,97979.52
2022-08-22T21:33:02.135Z,97973.75
2022-08-22T21:38:08.991Z,97978.12
2022-08-22T21:43:28.777Z,97992.86
2022-08-22T21:48:40.306Z,98011.10
2022-08-22T21:54:18.524Z,98017.33
2022-08-22T21:59:40.232Z,98005.58
2022-08-22T22:04:53.959Z,98021.05
2022-08-22T22:10:00.781Z,97990.98
2022-08-22T22:15:08.337Z,97992.17
2022-08-22T22:20:16.219Z,97966.66
2022-08-22T22:25:40.786Z,97970.44
2022-08-22T22:30:50.928Z,97975.44
2022-08-22T22:35:59.078Z,97979.95
2022-08-22T22:41:05.829Z,97981.51
2022-08-22T22:46:12.729Z,97986.90
2022-08-22T22:51:19.737Z,97982.17
2022-08-22T22:56:26.739Z,97974.10
2022-08-22T23:01:33.757Z,97963.07
2022-08-22T23:06:40.461Z,97957.55
2022-08-22T23:11:46.965Z,97969.33
2022-08-22T23:16:53.477Z,97953.16
2022-08-22T23:22:01.039Z,97938.39
2022-08-22T23:27:09.217Z,97938.88
2022-08-22T23:32:16.259Z,97939.98
2022-08-22T23:37:24.457Z,97944.92
2022-08-22T23:42:31.107Z,97950.84
2022-08-22T23:47:37.877Z,97950.88
2022-08-22T23:52:44.379Z,97944.38
2022-08-22T23:57:50.887Z,97940.27
